createdAt,value
2022-11-29T00:00:44.685Z,8.08
2022-11-29T00:03:11.429Z,7.80
2022-11-29T00:05:38.133Z,7.94
2022-11-29T00:08:04.774Z,8.18
2022-11-29T00:10:31.377Z,8.32
2022-11-29T00:12:58.037Z,8.46
2022-11-29T00:15:24.648Z,8.42
2022-11-29T00:17:51.236Z,8.06
2022-11-29T00:20:17.897Z,8.09
2022-11-29T00:22:44.628Z,8.02
2022-11-29T00:25:11.227Z,8.26
2022-11-29T00:27:37.882Z,8.44
2022-11-29T00:30:04.554Z,8.14
2022-11-29T00:32:31.164Z,7.93
2022-11-29T00:34:59.640Z,7.94
2022-11-29T00:37:26.603Z,7.84
2022-11-29T00:39:53.279Z,7.85
2022-11-29T00:42:19.920Z,7.62
2022-11-29T00:44:46.568Z,7.62
2022-11-29T00:47:13.251Z,7.97
2022-11-29T00:49:39.929Z,8.18
2022-11-29T00:52:06.573Z,8.30
2022-11-29T00:54:33.185Z,8.48
2022-11-29T00:56:59.803Z,8.62
2022-11-29T00:59:26.388Z,8.72
2022-11-29T01:01:53.044Z,8.79
2022-11-29T01:04:19.686Z,8.98
2022-11-29T01:06:46.309Z,8.93
2022-11-29T01:09:12.939Z,8.72
2022-11-29T01:11:39.608Z,8.85
2022-11-29T01:14:06.220Z,8.81
2022-11-29T01:16:32.917Z,8.68
2022-11-29T01:18:59.634Z,8.65
2022-11-29T01:21:26.246Z,8.65
2022-11-29T01:23:52.897Z,8.90
2022-11-29T01:26:19.524Z,8.46
2022-11-29T01:28:46.158Z,8.08
2022-11-29T01:31:12.818Z,8.24
2022-11-29T01:33:39.413Z,8.42
2022-11-29T01:36:06.073Z,8.31
2022-11-29T01:38:32.659Z,8.08
2022-11-29T01:40:59.233Z,8.09
2022-11-29T01:43:25.887Z,8.09
2022-11-29T01:45:52.528Z,7.97
2022-11-29T01:48:19.173Z,8.35
2022-11-29T01:50:45.818Z,8.59
2022-11-29T01:53:12.464Z,8.76
2022-11-29T01:55:39.149Z,8.75
2022-11-29T01:58:06.064Z,8.10
2022-11-29T02:00:32.692Z,7.84
2022-11-29T02:02:59.306Z,7.44
2022-11-29T02:05:25.936Z,7.45
2022-11-29T02:07:52.561Z,7.87
2022-11-29T02:10:19.276Z,7.97
2022-11-29T02:12:45.873Z,7.99
2022-11-29T02:15:12.504Z,8.06
2022-11-29T02:17:39.159Z,8.03
2022-11-29T02:20:06.391Z,7.91
2022-11-29T02:22:32.997Z,8.20
2022-11-29T02:24:59.666Z,8.18
2022-11-29T02:27:26.280Z,8.28
2022-11-29T02:29:52.935Z,8.34
2022-11-29T02:32:19.622Z,8.25
2022-11-29T02:34:46.434Z,8.29
2022-11-29T02:37:13.333Z,8.12
2022-11-29T02:39:39.988Z,8.10
2022-11-29T02:42:06.645Z,7.69
2022-11-29T02:44:33.270Z,7.52
2022-11-29T02:46:59.856Z,7.35
2022-11-29T02:49:26.480Z,7.30
2022-11-29T02:51:53.101Z,7.19
2022-11-29T02:54:19.769Z,7.32
2022-11-29T02:56:46.424Z,7.32
2022-11-29T02:59:13.041Z,7.32
2022-11-29T03:01:39.743Z,7.48
2022-11-29T03:04:06.356Z,7.37
2022-11-29T03:06:33.073Z,7.67
2022-11-29T03:08:59.740Z,7.81
2022-11-29T03:11:26.392Z,7.97
2022-11-29T03:13:53.012Z,7.77
2022-11-29T03:16:19.601Z,7.67
2022-11-29T03:18:46.215Z,7.62
2022-11-29T03:21:12.941Z,7.62
2022-11-29T03:23:39.603Z,7.74
2022-11-29T03:26:06.260Z,7.76
2022-11-29T03:28:32.869Z,7.79
2022-11-29T03:30:59.532Z,7.89
2022-11-29T03:33:26.164Z,7.92
2022-11-29T03:35:52.778Z,7.81
2022-11-29T03:38:19.380Z,7.77
2022-11-29T03:40:45.963Z,7.49
2022-11-29T03:43:12.572Z,7.53
2022-11-29T03:45:39.196Z,7.44
2022-11-29T03:48:05.810Z,7.66
2022-11-29T03:50:32.442Z,7.50
2022-11-29T03:52:59.117Z,7.51
2022-11-29T03:55:25.779Z,7.36
2022-11-29T03:57:52.427Z,7.29
2022-11-29T04:00:19.092Z,7.18
2022-11-29T04:02:45.723Z,7.04
2022-11-29T04:05:12.430Z,7.27
2022-11-29T04:07:39.111Z,7.29
2022-11-29T04:10:05.805Z,7.54
2022-11-29T04:12:32.417Z,7.60
2022-11-29T04:14:59.054Z,7.71
2022-11-29T04:17:25.737Z,7.45
2022-11-29T04:19:52.381Z,7.25
2022-11-29T04:22:18.996Z,7.37
2022-11-29T04:24:45.914Z,7.54
2022-11-29T04:27:12.698Z,7.59
2022-11-29T04:29:39.308Z,7.28
2022-11-29T04:32:05.969Z,7.13
2022-11-29T04:34:32.577Z,7.42
2022-11-29T04:36:59.233Z,7.32
2022-11-29T04:39:25.877Z,7.35
2022-11-29T04:41:52.508Z,7.71
2022-11-29T04:44:19.146Z,7.72
2022-11-29T04:46:45.849Z,7.86
2022-11-29T04:49:12.517Z,7.68
2022-11-29T04:51:39.133Z,8.01
2022-11-29T04:54:05.821Z,8.03
2022-11-29T04:56:32.462Z,7.88
2022-11-29T04:58:59.111Z,7.83
2022-11-29T05:01:25.747Z,7.84
2022-11-29T05:03:56.903Z,7.93
2022-11-29T05:06:23.904Z,8.04
2022-11-29T05:08:50.533Z,7.98
2022-11-29T05:11:20.831Z,7.94
2022-11-29T05:13:50.115Z,8.11
2022-11-29T05:16:16.831Z,7.97
2022-11-29T05:18:43.524Z,7.91
2022-11-29T05:21:10.150Z,7.72
2022-11-29T05:23:36.730Z,7.79
2022-11-29T05:26:03.406Z,8.11
2022-11-29T05:28:30.106Z,8.39
2022-11-29T05:30:56.761Z,8.46
2022-11-29T05:33:23.418Z,8.30
2022-11-29T05:35:50.077Z,8.11
2022-11-29T05:38:16.721Z,7.74
2022-11-29T05:40:43.408Z,7.43
2022-11-29T05:43:10.058Z,7.58
2022-11-29T05:45:37.055Z,7.39
2022-11-29T05:48:04.071Z,7.47
2022-11-29T05:50:30.722Z,7.51
2022-11-29T05:52:57.345Z,7.37
2022-11-29T05:55:23.949Z,7.77
2022-11-29T05:57:50.544Z,8.10
2022-11-29T06:00:17.213Z,8.08
2022-11-29T06:02:43.885Z,7.91
2022-11-29T06:05:10.576Z,7.87
2022-11-29T06:07:37.238Z,8.06
2022-11-29T06:10:03.960Z,7.87
2022-11-29T06:12:30.710Z,8.00
2022-11-29T06:14:57.337Z,8.03
2022-11-29T06:17:24.150Z,8.17
2022-11-29T06:22:34.948Z,8.39
2022-11-29T06:25:01.582Z,8.36
2022-11-29T06:27:28.266Z,8.22
2022-11-29T06:29:54.877Z,8.42
2022-11-29T06:32:21.514Z,8.51
2022-11-29T06:34:48.467Z,8.52
2022-11-29T06:37:15.250Z,8.54
2022-11-29T06:39:41.889Z,8.76
2022-11-29T06:42:08.538Z,8.87
2022-11-29T06:44:35.193Z,8.85
2022-11-29T06:47:01.840Z,8.82
2022-11-29T06:49:28.537Z,8.84
2022-11-29T06:51:55.125Z,8.93
2022-11-29T06:54:21.722Z,9.00
2022-11-29T06:56:48.346Z,9.05
2022-11-29T06:59:14.985Z,9.06
2022-11-29T07:01:41.751Z,9.04
2022-11-29T07:04:08.434Z,8.67
2022-11-29T07:06:35.079Z,8.46
2022-11-29T07:09:01.726Z,8.61
2022-11-29T07:11:28.374Z,8.78
2022-11-29T07:13:55.026Z,8.91
2022-11-29T07:16:21.748Z,8.82
2022-11-29T07:18:48.457Z,8.93
2022-11-29T07:21:15.048Z,8.92
2022-11-29T07:23:41.697Z,8.91
2022-11-29T07:26:08.337Z,8.82
2022-11-29T07:28:35.589Z,9.02
2022-11-29T07:31:02.789Z,9.06
2022-11-29T07:33:30.113Z,8.93
2022-11-29T07:35:57.567Z,8.97
2022-11-29T07:38:24.457Z,8.89
2022-11-29T07:40:51.706Z,8.84
2022-11-29T07:43:18.971Z,8.92
2022-11-29T07:45:45.946Z,9.02
2022-11-29T07:48:12.620Z,9.12
2022-11-29T07:50:39.823Z,9.15
2022-11-29T07:53:06.628Z,9.23
2022-11-29T07:55:33.703Z,9.34
2022-11-29T07:58:00.398Z,9.42
2022-11-29T08:00:27.184Z,9.40
2022-11-29T08:02:53.987Z,9.45
2022-11-29T08:05:20.711Z,9.49
2022-11-29T08:07:48.111Z,9.54
2022-11-29T08:10:14.869Z,9.55
2022-11-29T08:12:41.924Z,9.56
2022-11-29T08:15:09.081Z,9.55
2022-11-29T08:17:35.995Z,9.59
2022-11-29T08:20:04.479Z,9.59
2022-11-29T08:22:31.484Z,9.55
2022-11-29T08:24:58.758Z,9.22
2022-11-29T08:27:25.584Z,9.23
2022-11-29T08:29:52.486Z,9.20
2022-11-29T08:32:19.924Z,9.32
2022-11-29T08:34:46.939Z,9.30
2022-11-29T08:37:13.733Z,9.38
2022-11-29T08:39:40.441Z,9.53
2022-11-29T08:42:07.049Z,9.69
2022-11-29T08:44:33.710Z,9.79
2022-11-29T08:47:00.313Z,9.92
2022-11-29T08:49:26.953Z,9.96
2022-11-29T08:51:53.580Z,9.96
2022-11-29T08:54:20.220Z,10.04
2022-11-29T08:59:33.484Z,9.35
2022-11-29T09:02:00.216Z,8.92
2022-11-29T09:04:26.916Z,8.77
2022-11-29T09:06:53.557Z,8.70
2022-11-29T09:09:20.205Z,8.71
2022-11-29T09:11:49.439Z,8.86
2022-11-29T09:14:16.353Z,8.98
2022-11-29T09:16:42.996Z,8.63
2022-11-29T09:19:09.691Z,8.77
2022-11-29T09:21:36.317Z,9.00
2022-11-29T09:24:02.960Z,8.72
2022-11-29T09:26:29.545Z,8.80
2022-11-29T09:28:56.223Z,8.96
2022-11-29T09:31:22.937Z,9.15
2022-11-29T09:33:49.606Z,9.38
2022-11-29T09:36:16.237Z,9.63
2022-11-29T09:38:42.930Z,9.90
2022-11-29T09:41:09.536Z,10.09
2022-11-29T09:43:36.176Z,9.97
2022-11-29T09:46:02.813Z,9.79
2022-11-29T09:48:29.452Z,9.62
2022-11-29T09:50:56.052Z,9.77
2022-11-29T09:53:22.655Z,9.94
2022-11-29T09:55:49.311Z,10.01
2022-11-29T09:58:15.958Z,9.72
2022-11-29T10:00:42.563Z,9.71
2022-11-29T10:03:09.176Z,9.88
2022-11-29T10:05:35.823Z,10.03
2022-11-29T10:08:10.945Z,10.18
2022-11-29T10:10:37.590Z,10.14
2022-11-29T10:13:04.228Z,10.17
2022-11-29T10:15:30.897Z,10.31
2022-11-29T10:17:57.555Z,10.42
2022-11-29T10:20:24.181Z,10.32
2022-11-29T10:22:50.824Z,10.28
2022-11-29T10:25:17.464Z,10.36
2022-11-29T10:27:44.158Z,10.01
2022-11-29T10:30:10.855Z,10.03
2022-11-29T10:32:37.548Z,10.23
2022-11-29T10:35:04.194Z,9.69
2022-11-29T10:37:30.812Z,9.79
2022-11-29T10:39:57.405Z,10.03
2022-11-29T10:42:24.075Z,10.14
2022-11-29T10:44:50.697Z,10.29
2022-11-29T10:47:17.307Z,10.37
2022-11-29T10:49:43.966Z,10.37
2022-11-29T10:52:10.600Z,10.13
2022-11-29T10:54:37.232Z,9.70
2022-11-29T10:57:03.874Z,9.71
2022-11-29T10:59:30.488Z,10.00
2022-11-29T11:01:57.074Z,10.03
2022-11-29T11:04:23.731Z,10.18
2022-11-29T11:06:50.334Z,10.14
2022-11-29T11:09:16.961Z,10.24
2022-11-29T11:11:43.576Z,9.48
2022-11-29T11:14:10.237Z,9.56
2022-11-29T11:16:37.785Z,9.72
2022-11-29T11:19:04.606Z,9.96
2022-11-29T11:21:31.299Z,9.56
2022-11-29T11:23:57.925Z,9.75
2022-11-29T11:26:24.530Z,9.94
2022-11-29T11:28:51.137Z,10.13
2022-11-29T11:31:17.812Z,10.24
2022-11-29T11:33:44.533Z,10.34
2022-11-29T11:36:11.142Z,10.30
2022-11-29T11:38:37.736Z,10.36
2022-11-29T11:41:04.403Z,9.53
2022-11-29T11:43:30.996Z,9.47
2022-11-29T11:45:57.674Z,9.53
2022-11-29T11:48:24.383Z,9.22
2022-11-29T11:50:51.020Z,9.11
2022-11-29T11:53:17.640Z,9.07
2022-11-29T11:55:44.285Z,8.61
2022-11-29T11:58:11.083Z,8.54
2022-11-29T12:01:02.437Z,8.35
2022-11-29T12:03:24.403Z,8.61
2022-11-29T12:05:51.086Z,8.65
2022-11-29T12:08:17.823Z,8.26
2022-11-29T12:10:44.547Z,8.38
2022-11-29T12:13:11.173Z,8.49
2022-11-29T12:15:37.956Z,8.45
2022-11-29T12:18:04.678Z,8.50
2022-11-29T12:20:31.324Z,8.39
2022-11-29T12:22:57.996Z,8.56
2022-11-29T12:25:24.621Z,8.58
2022-11-29T12:27:51.268Z,8.34
2022-11-29T12:30:17.937Z,8.27
2022-11-29T12:32:44.533Z,8.41
2022-11-29T12:35:14.779Z,8.66
2022-11-29T12:37:44.058Z,8.82
2022-11-29T12:40:10.762Z,8.53
2022-11-29T12:42:37.514Z,8.87
2022-11-29T12:45:04.211Z,8.86
2022-11-29T12:47:38.208Z,8.72
2022-11-29T12:50:05.038Z,9.16
2022-11-29T12:52:31.726Z,9.32
2022-11-29T12:54:58.347Z,8.93
2022-11-29T12:57:25.013Z,8.46
2022-11-29T12:59:51.659Z,8.18
2022-11-29T13:02:18.361Z,8.73
2022-11-29T13:04:45.378Z,8.83
2022-11-29T13:07:12.358Z,8.70
2022-11-29T13:09:38.973Z,8.41
2022-11-29T13:12:05.955Z,8.54
2022-11-29T13:14:47.942Z,8.37
2022-11-29T13:17:14.554Z,8.24
2022-11-29T13:19:41.221Z,7.96
2022-11-29T13:22:07.836Z,7.96
2022-11-29T13:24:38.376Z,7.92
2022-11-29T13:27:09.310Z,7.68
2022-11-29T13:29:35.915Z,7.70
2022-11-29T13:32:02.540Z,7.52
2022-11-29T13:34:29.203Z,7.94
2022-11-29T13:36:55.855Z,7.93
2022-11-29T13:39:22.500Z,7.79
2022-11-29T13:41:49.206Z,7.91
2022-11-29T13:44:15.830Z,7.88
2022-11-29T13:46:42.509Z,7.76
2022-11-29T13:49:09.207Z,8.15
2022-11-29T13:51:35.850Z,8.46
2022-11-29T13:54:02.503Z,8.84
2022-11-29T13:56:29.127Z,8.81
2022-11-29T13:58:55.806Z,8.51
2022-11-29T14:01:22.515Z,8.21
2022-11-29T14:03:49.164Z,8.45
2022-11-29T14:06:15.798Z,8.64
2022-11-29T14:09:10.734Z,8.69
2022-11-29T14:11:28.966Z,8.60
2022-11-29T14:13:55.607Z,8.74
2022-11-29T14:16:22.227Z,8.83
2022-11-29T14:18:48.950Z,8.58
2022-11-29T14:21:15.570Z,8.34
2022-11-29T14:23:42.234Z,8.23
2022-11-29T14:26:08.854Z,8.46
2022-11-29T14:28:35.504Z,8.61
2022-11-29T14:31:02.273Z,8.34
2022-11-29T14:33:29.056Z,8.42
2022-11-29T14:35:55.722Z,8.66
2022-11-29T14:38:26.332Z,8.46
2022-11-29T14:40:57.523Z,8.69
2022-11-29T14:43:24.177Z,8.78
2022-11-29T14:45:50.813Z,8.76
2022-11-29T14:48:17.483Z,8.59
2022-11-29T14:50:44.132Z,8.45
2022-11-29T14:53:10.815Z,8.75
2022-11-29T14:55:37.414Z,9.20
2022-11-29T14:58:04.095Z,9.35
2022-11-29T15:00:30.805Z,9.26
2022-11-29T15:02:57.469Z,9.01
2022-11-29T15:05:24.114Z,9.00
2022-11-29T15:07:50.805Z,9.22
2022-11-29T15:10:17.549Z,9.40
2022-11-29T15:12:44.215Z,9.46
2022-11-29T15:15:10.861Z,9.44
2022-11-29T15:17:37.563Z,9.44
2022-11-29T15:20:04.208Z,9.30
2022-11-29T15:22:30.846Z,9.32
2022-11-29T15:24:57.468Z,9.14
2022-11-29T15:27:24.111Z,9.25
2022-11-29T15:29:50.756Z,9.38
2022-11-29T15:32:17.378Z,9.52
2022-11-29T15:34:44.274Z,9.44
2022-11-29T15:37:11.156Z,9.49
2022-11-29T15:39:37.736Z,9.50
2022-11-29T15:42:04.384Z,9.59
2022-11-29T15:44:31.029Z,9.41
2022-11-29T15:46:57.708Z,9.51
2022-11-29T15:49:24.389Z,9.18
2022-11-29T15:51:50.985Z,8.88
2022-11-29T15:54:17.571Z,9.06
2022-11-29T15:56:44.251Z,9.44
2022-11-29T15:59:10.841Z,9.48
2022-11-29T16:01:37.579Z,9.43
2022-11-29T16:04:04.294Z,9.17
2022-11-29T16:06:30.942Z,9.27
2022-11-29T16:08:57.610Z,9.32
2022-11-29T16:11:24.219Z,9.17
2022-11-29T16:13:50.845Z,9.07
2022-11-29T16:16:17.469Z,9.12
2022-11-29T16:18:44.275Z,9.38
2022-11-29T16:21:10.860Z,9.27
2022-11-29T16:23:37.529Z,9.28
2022-11-29T16:26:04.166Z,9.55
2022-11-29T16:28:30.854Z,9.74
2022-11-29T16:30:57.489Z,9.65
2022-11-29T16:33:24.137Z,9.55
2022-11-29T16:35:50.761Z,9.63
2022-11-29T16:38:17.388Z,9.79
2022-11-29T16:40:43.994Z,9.89
2022-11-29T16:43:10.633Z,9.53
2022-11-29T16:45:37.369Z,9.50
2022-11-29T16:48:04.049Z,9.67
2022-11-29T16:50:30.687Z,9.74
2022-11-29T16:52:57.324Z,9.85
2022-11-29T16:55:24.009Z,9.68
2022-11-29T16:57:50.611Z,9.38
2022-11-29T17:00:17.220Z,9.30
2022-11-29T17:02:43.843Z,9.23
2022-11-29T17:05:10.472Z,9.11
2022-11-29T17:07:37.147Z,9.19
2022-11-29T17:10:03.817Z,9.40
2022-11-29T17:12:30.415Z,9.37
2022-11-29T17:14:57.066Z,9.50
2022-11-29T17:17:23.686Z,9.65
2022-11-29T17:19:50.360Z,9.68
2022-11-29T17:22:16.977Z,9.77
2022-11-29T17:24:47.697Z,9.73
2022-11-29T17:27:15.098Z,9.67
2022-11-29T17:29:41.745Z,9.73
2022-11-29T17:32:08.410Z,9.89
2022-11-29T17:34:35.384Z,9.86
2022-11-29T17:37:02.025Z,9.87
2022-11-29T17:39:28.677Z,9.90
2022-11-29T17:41:55.300Z,9.86
2022-11-29T17:44:21.903Z,9.76
2022-11-29T17:46:48.580Z,9.47
2022-11-29T17:49:15.223Z,9.63
2022-11-29T17:51:57.213Z,9.52
2022-11-29T17:54:23.841Z,9.69
2022-11-29T17:56:50.518Z,9.72
2022-11-29T17:59:17.182Z,9.71
2022-11-29T18:01:43.945Z,9.69
2022-11-29T18:04:10.694Z,9.66
2022-11-29T18:06:37.308Z,9.72
2022-11-29T18:09:03.926Z,9.77
2022-11-29T18:11:30.584Z,9.78
2022-11-29T18:13:57.197Z,9.72
2022-11-29T18:16:23.862Z,9.57
2022-11-29T18:18:50.628Z,9.64
2022-11-29T18:21:17.312Z,9.69
2022-11-29T18:23:43.919Z,9.66
2022-11-29T18:26:10.511Z,9.58
2022-11-29T18:28:37.189Z,9.56
2022-11-29T18:31:03.885Z,9.66
2022-11-29T18:33:30.592Z,9.65
2022-11-29T18:35:57.188Z,9.52
2022-11-29T18:38:23.851Z,9.62
2022-11-29T18:40:50.479Z,9.58
2022-11-29T18:43:17.108Z,9.47
2022-11-29T18:45:43.801Z,9.51
2022-11-29T18:48:10.649Z,9.59
2022-11-29T18:50:37.304Z,9.67
2022-11-29T18:53:03.990Z,9.71
2022-11-29T18:55:30.619Z,9.73
2022-11-29T18:57:57.280Z,9.71
2022-11-29T19:00:23.925Z,9.69
2022-11-29T19:02:50.642Z,9.68
2022-11-29T19:05:17.284Z,9.62
2022-11-29T19:07:43.947Z,9.49
2022-11-29T19:10:10.626Z,9.43
2022-11-29T19:12:37.266Z,9.38
2022-11-29T19:15:03.891Z,9.28
2022-11-29T19:17:30.563Z,9.41
2022-11-29T19:19:57.194Z,9.48
2022-11-29T19:22:23.853Z,9.56
2022-11-29T19:24:50.522Z,9.67
2022-11-29T19:27:17.161Z,9.63
2022-11-29T19:29:43.795Z,9.66
2022-11-29T19:32:10.435Z,9.66
2022-11-29T19:34:37.069Z,9.60
2022-11-29T19:37:03.683Z,9.61
2022-11-29T19:39:30.377Z,9.51
2022-11-29T19:41:57.075Z,9.44
2022-11-29T19:44:28.049Z,9.39
2022-11-29T19:46:56.641Z,9.48
2022-11-29T19:49:23.251Z,9.40
2022-11-29T19:51:49.890Z,9.34
2022-11-29T19:54:16.538Z,9.35
2022-11-29T19:56:43.189Z,9.24
2022-11-29T19:59:09.838Z,9.34
2022-11-29T20:01:40.838Z,9.31
2022-11-29T20:04:08.309Z,9.40
2022-11-29T20:06:34.940Z,9.35
2022-11-29T20:09:01.559Z,9.36
2022-11-29T20:11:28.194Z,9.38
2022-11-29T20:13:58.381Z,9.40
2022-11-29T20:16:25.034Z,9.45
2022-11-29T20:18:51.667Z,9.45
2022-11-29T20:21:18.339Z,9.42
2022-11-29T20:23:44.990Z,9.46
2022-11-29T20:26:11.674Z,9.48
2022-11-29T20:28:38.335Z,9.43
2022-11-29T20:31:05.611Z,9.43
2022-11-29T20:33:32.230Z,9.43
2022-11-29T20:35:58.848Z,9.35
2022-11-29T20:38:25.461Z,9.28
2022-11-29T20:40:52.724Z,9.33
2022-11-29T20:43:19.462Z,9.33
2022-11-29T20:45:46.105Z,9.26
2022-11-29T20:48:12.761Z,9.30
2022-11-29T20:50:39.461Z,9.35
2022-11-29T20:53:06.144Z,9.32
2022-11-29T20:55:32.811Z,9.30
2022-11-29T20:57:59.470Z,9.37
2022-11-29T21:00:26.085Z,9.37
2022-11-29T21:02:52.717Z,9.39
2022-11-29T21:05:19.344Z,9.41
2022-11-29T21:07:46.046Z,9.35
2022-11-29T21:10:12.762Z,9.34
2022-11-29T21:12:39.441Z,9.41
2022-11-29T21:15:06.068Z,9.38
2022-11-29T21:17:33.927Z,9.39
2022-11-29T21:20:00.733Z,9.41
2022-11-29T21:22:27.371Z,9.45
2022-11-29T21:24:54.006Z,9.52
2022-11-29T21:27:20.593Z,9.51
2022-11-29T21:29:47.228Z,9.41
2022-11-29T21:32:19.045Z,9.27
2022-11-29T21:34:46.093Z,9.19
2022-11-29T21:37:12.903Z,9.26
2022-11-29T21:39:39.559Z,9.32
2022-11-29T21:42:06.208Z,9.07
2022-11-29T21:44:32.863Z,9.01
2022-11-29T21:46:59.480Z,9.02
2022-11-29T21:49:26.095Z,9.12
2022-11-29T21:51:52.780Z,9.19
2022-11-29T21:54:19.455Z,9.24
2022-11-29T21:56:46.093Z,9.17
2022-11-29T21:59:12.692Z,9.13
2022-11-29T22:01:39.373Z,8.93
2022-11-29T22:04:06.161Z,9.09
2022-11-29T22:06:32.785Z,9.25
2022-11-29T22:08:59.372Z,8.99
2022-11-29T22:11:25.956Z,8.97
2022-11-29T22:13:52.568Z,9.11
2022-11-29T22:16:19.221Z,9.15
2022-11-29T22:18:46.038Z,9.24
2022-11-29T22:21:12.653Z,9.27
2022-11-29T22:23:39.291Z,9.16
2022-11-29T22:26:05.941Z,9.19
2022-11-29T22:28:32.571Z,9.18
2022-11-29T22:30:59.303Z,9.28
2022-11-29T22:33:25.919Z,9.32
2022-11-29T22:35:52.559Z,9.26
2022-11-29T22:38:19.242Z,9.27
2022-11-29T22:40:45.875Z,9.32
2022-11-29T22:43:12.515Z,9.33
2022-11-29T22:45:39.208Z,9.29
2022-11-29T22:48:05.805Z,9.32
2022-11-29T22:50:32.463Z,9.30
2022-11-29T22:52:59.068Z,9.29
2022-11-29T22:55:25.733Z,9.29
2022-11-29T22:57:52.430Z,9.26
2022-11-29T23:00:19.026Z,9.27
2022-11-29T23:02:45.637Z,9.07
2022-11-29T23:05:12.244Z,9.22
2022-11-29T23:07:38.885Z,9.36
2022-11-29T23:10:05.524Z,9.35
2022-11-29T23:12:32.112Z,9.20
2022-11-29T23:14:58.969Z,9.23
2022-11-29T23:17:25.748Z,9.26
2022-11-29T23:19:52.485Z,9.25
2022-11-29T23:22:19.234Z,9.26
2022-11-29T23:24:46.207Z,9.28
2022-11-29T23:27:12.978Z,9.27
2022-11-29T23:29:39.625Z,9.11
2022-11-29T23:32:06.267Z,9.06
2022-11-29T23:34:33.040Z,9.11
2022-11-29T23:37:02.828Z,8.77
2022-11-29T23:39:29.453Z,8.86
2022-11-29T23:41:56.083Z,8.96
2022-11-29T23:44:22.784Z,9.02
2022-11-29T23:46:49.412Z,9.13
2022-11-29T23:49:16.073Z,9.13
2022-11-29T23:51:42.731Z,9.19
2022-11-29T23:54:09.412Z,9.26
2022-11-29T23:56:36.039Z,9.19
2022-11-29T23:59:02.729Z,9.14
